Providence, RI

09:56 EDT le 25 septembre 2016 (GMT -0400)
College Hill | | Change Station

Alt. 81 ft 41.82 °N, 71.40 °W | Updated 16 seconds ago

Clear
Ciel dégagé
57.8 ° F
Paraît 57.8 ° F
N
1.0
Vent Variable Vent de Ouest
Gusts 1.0 mph

Aujourd'hui
Haut(e) -- | Bas -- ° F
--% Risque de précip.
Hier
Haut(e) -- | Bas -- ° F
Precip. -- pouce
Pression 30.16 pouce
Visibilité 10.0 Miles terrestres
Nuages Ciel dégagé
Point de rosée 38 ° F
Humidité 48%
Précipitations 0.00 pouce
Profondeur de la couche neigeuse Non disponible.
6:36 AM 6:36 PM
Lune descendante, 27% visible
METAR KPVD 251351Z 34013KT 10SM CLR 14/01 A3016 RMK AO2 SLP213 T01440011
Pression 30.16 pouce
Visibilité 10.0 Miles terrestres
Nuages Ciel dégagé
Point de rosée 38 ° F
Humidité 48%
Précipitations 0.00 pouce
Profondeur de la couche neigeuse Non disponible.
6:36 AM 6:36 PM
Lune descendante, 27% visible
METAR KPVD 251351Z 34013KT 10SM CLR 14/01 A3016 RMK AO2 SLP213 T01440011

10-Day Weather Forecast

Almanac

Astronomie

Sep. 25, 2016 Lever Coucher
Temps réel
Crépuscule civil
Crépuscule nautique
Crépuscule astronomique
Lune
Durée de lumière visible
Longueur du jour
Tomorrow will be .
, % of the Moon is Illuminated

Extrêmes aujourd'hui

State Highs State Lows

Community

WunderPhotos

Upload Photos

1,941,609 Photos téléchargées !

WunderBlog® & News

Nearby

Qualité de l'air

  Qualité de l'air Indice de la qualité de l'air Polluant
Not available.

Épaisseur de neige

Station Depth Altitude

Activité sismique

Ville Distance Mag. Time & Date
Minimum magnitude displayed is 2.5.

Températures des eaux côtières

Lieu Température

Stations

Stations météo à proximité

Emplacement de la station Température Refroidissement éolien Point de rosée Humidité Vent Precip. Alt. Mise à jour Type
                   

Watches & Warnings

There are currently no watches in effect.